sensor_id;sensor_type;location;lat;lon;timestamp;P1;durP1;ratioP1;P2;durP2;ratioP2
12838;SDS011;6486;51.034;5.262;2022-08-01T00:01:00;1.10;;;1.00;;
12838;SDS011;6486;51.034;5.262;2022-08-01T00:03:25;1.10;;;0.90;;
12838;SDS011;6486;51.034;5.262;2022-08-01T00:05:51;1.60;;;0.87;;
12838;SDS011;6486;51.034;5.262;2022-08-01T00:08:17;0.70;;;0.70;;
12838;SDS011;6486;51.034;5.262;2022-08-01T00:10:42;0.97;;;0.90;;
12838;SDS011;6486;51.034;5.262;2022-08-01T00:13:08;0.80;;;0.80;;
12838;SDS011;6486;51.034;5.262;2022-08-01T00:15:33;0.70;;;0.70;;
12838;SDS011;6486;51.034;5.262;2022-08-01T00:17:59;0.60;;;0.60;;
12838;SDS011;6486;51.034;5.262;2022-08-01T00:20:25;0.93;;;0.73;;
12838;SDS011;6486;51.034;5.262;2022-08-01T00:22:50;1.63;;;0.83;;
12838;SDS011;6486;51.034;5.262;2022-08-01T00:25:16;1.83;;;0.90;;
12838;SDS011;6486;51.034;5.262;2022-08-01T00:27:42;0.67;;;0.67;;
12838;SDS011;6486;51.034;5.262;2022-08-01T00:30:07;2.13;;;0.80;;
12838;SDS011;6486;51.034;5.262;2022-08-01T00:32:33;2.40;;;1.20;;
12838;SDS011;6486;51.034;5.262;2022-08-01T00:34:59;1.37;;;1.20;;
12838;SDS011;6486;51.034;5.262;2022-08-01T00:37:25;0.80;;;0.80;;
12838;SDS011;6486;51.034;5.262;2022-08-01T00:39:50;1.90;;;0.80;;
12838;SDS011;6486;51.034;5.262;2022-08-01T00:42:16;1.67;;;0.60;;
12838;SDS011;6486;51.034;5.262;2022-08-01T00:44:42;1.80;;;0.97;;
12838;SDS011;6486;51.034;5.262;2022-08-01T00:47:07;0.93;;;0.70;;
12838;SDS011;6486;51.034;5.262;2022-08-01T00:49:33;2.20;;;1.00;;
12838;SDS011;6486;51.034;5.262;2022-08-01T00:52:00;1.07;;;0.70;;
12838;SDS011;6486;51.034;5.262;2022-08-01T00:54:27;1.57;;;1.00;;
12838;SDS011;6486;51.034;5.262;2022-08-01T00:56:53;1.60;;;0.80;;
12838;SDS011;6486;51.034;5.262;2022-08-01T00:59:21;0.90;;;0.87;;
12838;SDS011;6486;51.034;5.262;2022-08-01T01:01:47;0.80;;;0.80;;
12838;SDS011;6486;51.034;5.262;2022-08-01T01:04:14;0.40;;;0.40;;
12838;SDS011;6486;51.034;5.262;2022-08-01T01:06:57;1.90;;;0.70;;
12838;SDS011;6486;51.034;5.262;2022-08-01T01:17:27;1.00;;;0.93;;
12838;SDS011;6486;51.034;5.262;2022-08-01T01:20:02;1.00;;;0.90;;
12838;SDS011;6486;51.034;5.262;2022-08-01T01:22:47;1.47;;;0.80;;
12838;SDS011;6486;51.034;5.262;2022-08-01T01:25:24;0.90;;;0.73;;
12838;SDS011;6486;51.034;5.262;2022-08-01T01:30:51;0.73;;;0.70;;
12838;SDS011;6486;51.034;5.262;2022-08-01T01:33:21;0.50;;;0.50;;
12838;SDS011;6486;51.034;5.262;2022-08-01T01:35:49;1.60;;;1.00;;
12838;SDS011;6486;51.034;5.262;2022-08-01T01:38:20;1.63;;;0.83;;
12838;SDS011;6486;51.034;5.262;2022-08-01T01:40:48;2.03;;;0.93;;
12838;SDS011;6486;51.034;5.262;2022-08-01T01:43:16;1.90;;;0.50;;
12838;SDS011;6486;51.034;5.262;2022-08-01T01:45:44;0.33;;;0.33;;
12838;SDS011;6486;51.034;5.262;2022-08-01T01:48:16;0.90;;;0.70;;
12838;SDS011;6486;51.034;5.262;2022-08-01T01:50:45;1.23;;;0.70;;
12838;SDS011;6486;51.034;5.262;2022-08-01T01:53:15;0.83;;;0.70;;
12838;SDS011;6486;51.034;5.262;2022-08-01T01:55:43;2.37;;;0.97;;
12838;SDS011;6486;51.034;5.262;2022-08-01T01:58:13;0.70;;;0.70;;
12838;SDS011;6486;51.034;5.262;2022-08-01T02:00:40;1.03;;;0.90;;
12838;SDS011;6486;51.034;5.262;2022-08-01T02:03:09;3.33;;;0.83;;
12838;SDS011;6486;51.034;5.262;2022-08-01T02:05:37;0.70;;;0.70;;
12838;SDS011;6486;51.034;5.262;2022-08-01T02:08:04;0.90;;;0.90;;
12838;SDS011;6486;51.034;5.262;2022-08-01T02:10:33;1.03;;;0.80;;
12838;SDS011;6486;51.034;5.262;2022-08-01T02:13:01;1.33;;;1.23;;
12838;SDS011;6486;51.034;5.262;2022-08-01T02:15:29;1.50;;;0.90;;
12838;SDS011;6486;51.034;5.262;2022-08-01T02:17:58;1.73;;;0.80;;
12838;SDS011;6486;51.034;5.262;2022-08-01T02:20:26;7.10;;;1.00;;
12838;SDS011;6486;51.034;5.262;2022-08-01T02:23:07;2.30;;;0.87;;
12838;SDS011;6486;51.034;5.262;2022-08-01T02:25:42;0.97;;;0.97;;
12838;SDS011;6486;51.034;5.262;2022-08-01T02:28:32;1.00;;;1.00;;
12838;SDS011;6486;51.034;5.262;2022-08-01T02:31:04;1.50;;;1.00;;
12838;SDS011;6486;51.034;5.262;2022-08-01T02:33:38;2.67;;;1.17;;
12838;SDS011;6486;51.034;5.262;2022-08-01T02:36:12;0.80;;;0.60;;
12838;SDS011;6486;51.034;5.262;2022-08-01T02:38:41;1.47;;;1.33;;
12838;SDS011;6486;51.034;5.262;2022-08-01T02:41:10;1.80;;;1.40;;
12838;SDS011;6486;51.034;5.262;2022-08-01T02:43:40;2.77;;;1.30;;
12838;SDS011;6486;51.034;5.262;2022-08-01T02:46:12;2.30;;;1.53;;
12838;SDS011;6486;51.034;5.262;2022-08-01T02:48:42;3.03;;;1.00;;
12838;SDS011;6486;51.034;5.262;2022-08-01T02:51:10;1.37;;;1.23;;
12838;SDS011;6486;51.034;5.262;2022-08-01T02:53:38;6.33;;;1.10;;
12838;SDS011;6486;51.034;5.262;2022-08-01T02:56:07;3.63;;;1.40;;
12838;SDS011;6486;51.034;5.262;2022-08-01T02:58:35;2.27;;;1.40;;
12838;SDS011;6486;51.034;5.262;2022-08-01T03:01:03;1.60;;;1.27;;
12838;SDS011;6486;51.034;5.262;2022-08-01T03:03:30;2.20;;;1.90;;
12838;SDS011;6486;51.034;5.262;2022-08-01T03:05:58;4.00;;;1.60;;
12838;SDS011;6486;51.034;5.262;2022-08-01T03:08:25;3.80;;;1.47;;
12838;SDS011;6486;51.034;5.262;2022-08-01T03:10:53;2.77;;;1.50;;
12838;SDS011;6486;51.034;5.262;2022-08-01T03:13:21;5.37;;;2.33;;
12838;SDS011;6486;51.034;5.262;2022-08-01T03:15:48;2.97;;;2.23;;
12838;SDS011;6486;51.034;5.262;2022-08-01T03:18:15;4.53;;;2.00;;
12838;SDS011;6486;51.034;5.262;2022-08-01T03:20:42;4.77;;;1.77;;
12838;SDS011;6486;51.034;5.262;2022-08-01T03:23:09;6.93;;;2.37;;
12838;SDS011;6486;51.034;5.262;2022-08-01T03:25:37;3.33;;;1.87;;
12838;SDS011;6486;51.034;5.262;2022-08-01T03:28:04;3.10;;;1.87;;
12838;SDS011;6486;51.034;5.262;2022-08-01T03:30:32;3.20;;;1.70;;
12838;SDS011;6486;51.034;5.262;2022-08-01T03:32:58;4.60;;;2.33;;
12838;SDS011;6486;51.034;5.262;2022-08-01T03:35:29;1.97;;;1.80;;
12838;SDS011;6486;51.034;5.262;2022-08-01T03:37:58;7.90;;;2.17;;
12838;SDS011;6486;51.034;5.262;2022-08-01T03:40:47;4.27;;;2.57;;
12838;SDS011;6486;51.034;5.262;2022-08-01T03:43:40;2.73;;;2.00;;
12838;SDS011;6486;51.034;5.262;2022-08-01T03:46:10;3.50;;;2.03;;
12838;SDS011;6486;51.034;5.262;2022-08-01T03:48:43;2.33;;;1.90;;
12838;SDS011;6486;51.034;5.262;2022-08-01T03:51:13;2.97;;;2.47;;
12838;SDS011;6486;51.034;5.262;2022-08-01T03:53:39;4.20;;;2.57;;
12838;SDS011;6486;51.034;5.262;2022-08-01T03:56:07;6.90;;;2.63;;
12838;SDS011;6486;51.034;5.262;2022-08-01T03:58:35;5.00;;;2.53;;
12838;SDS011;6486;51.034;5.262;2022-08-01T04:01:03;3.73;;;2.47;;
12838;SDS011;6486;51.034;5.262;2022-08-01T04:03:30;6.00;;;2.53;;
12838;SDS011;6486;51.034;5.262;2022-08-01T04:05:57;4.97;;;2.47;;
12838;SDS011;6486;51.034;5.262;2022-08-01T04:08:22;2.87;;;1.97;;
12838;SDS011;6486;51.034;5.262;2022-08-01T04:10:48;6.53;;;2.20;;
12838;SDS011;6486;51.034;5.262;2022-08-01T04:13:14;5.50;;;2.63;;
12838;SDS011;6486;51.034;5.262;2022-08-01T04:15:39;2.40;;;2.20;;
12838;SDS011;6486;51.034;5.262;2022-08-01T04:18:05;6.07;;;2.40;;
12838;SDS011;6486;51.034;5.262;2022-08-01T04:20:31;3.10;;;2.13;;
12838;SDS011;6486;51.034;5.262;2022-08-01T04:22:57;5.03;;;3.03;;
12838;SDS011;6486;51.034;5.262;2022-08-01T04:25:25;6.47;;;3.10;;
12838;SDS011;6486;51.034;5.262;2022-08-01T04:27:54;4.57;;;2.50;;
12838;SDS011;6486;51.034;5.262;2022-08-01T04:30:23;3.30;;;2.30;;
12838;SDS011;6486;51.034;5.262;2022-08-01T04:32:56;3.03;;;2.37;;
12838;SDS011;6486;51.034;5.262;2022-08-01T04:35:24;5.83;;;2.73;;
12838;SDS011;6486;51.034;5.262;2022-08-01T04:37:51;7.33;;;2.70;;
12838;SDS011;6486;51.034;5.262;2022-08-01T04:40:18;3.63;;;2.07;;
12838;SDS011;6486;51.034;5.262;2022-08-01T04:42:46;6.53;;;2.63;;
12838;SDS011;6486;51.034;5.262;2022-08-01T04:45:13;7.83;;;2.17;;
12838;SDS011;6486;51.034;5.262;2022-08-01T04:47:40;4.17;;;2.70;;
12838;SDS011;6486;51.034;5.262;2022-08-01T04:50:07;6.13;;;3.20;;
12838;SDS011;6486;51.034;5.262;2022-08-01T04:52:34;4.57;;;3.37;;
12838;SDS011;6486;51.034;5.262;2022-08-01T04:55:01;5.03;;;3.07;;
12838;SDS011;6486;51.034;5.262;2022-08-01T04:57:27;5.77;;;3.00;;
12838;SDS011;6486;51.034;5.262;2022-08-01T04:59:53;6.03;;;2.80;;
12838;SDS011;6486;51.034;5.262;2022-08-01T05:02:21;7.63;;;3.37;;
12838;SDS011;6486;51.034;5.262;2022-08-01T05:04:48;8.43;;;3.73;;
12838;SDS011;6486;51.034;5.262;2022-08-01T05:07:14;5.03;;;3.67;;
12838;SDS011;6486;51.034;5.262;2022-08-01T05:09:40;4.40;;;3.20;;
12838;SDS011;6486;51.034;5.262;2022-08-01T05:12:07;3.80;;;3.17;;
12838;SDS011;6486;51.034;5.262;2022-08-01T05:14:34;7.00;;;3.37;;
12838;SDS011;6486;51.034;5.262;2022-08-01T05:17:01;6.63;;;3.90;;
12838;SDS011;6486;51.034;5.262;2022-08-01T05:19:30;7.47;;;3.57;;
12838;SDS011;6486;51.034;5.262;2022-08-01T05:22:00;6.33;;;3.83;;
12838;SDS011;6486;51.034;5.262;2022-08-01T05:24:27;5.17;;;3.27;;
12838;SDS011;6486;51.034;5.262;2022-08-01T05:26:56;4.37;;;3.27;;
12838;SDS011;6486;51.034;5.262;2022-08-01T05:29:22;5.13;;;2.53;;
12838;SDS011;6486;51.034;5.262;2022-08-01T05:31:48;5.63;;;2.70;;
12838;SDS011;6486;51.034;5.262;2022-08-01T05:34:15;7.57;;;4.17;;
12838;SDS011;6486;51.034;5.262;2022-08-01T05:36:41;5.70;;;3.50;;
12838;SDS011;6486;51.034;5.262;2022-08-01T05:39:07;6.30;;;3.50;;
12838;SDS011;6486;51.034;5.262;2022-08-01T05:41:33;5.97;;;2.97;;
12838;SDS011;6486;51.034;5.262;2022-08-01T05:43:59;8.57;;;3.83;;
12838;SDS011;6486;51.034;5.262;2022-08-01T05:46:24;9.13;;;2.97;;
12838;SDS011;6486;51.034;5.262;2022-08-01T05:48:50;7.83;;;3.73;;
12838;SDS011;6486;51.034;5.262;2022-08-01T05:51:16;6.67;;;3.50;;
12838;SDS011;6486;51.034;5.262;2022-08-01T05:53:41;6.63;;;3.33;;
12838;SDS011;6486;51.034;5.262;2022-08-01T05:56:07;3.47;;;2.83;;
12838;SDS011;6486;51.034;5.262;2022-08-01T05:58:33;4.90;;;3.40;;
12838;SDS011;6486;51.034;5.262;2022-08-01T06:00:58;5.53;;;2.77;;
12838;SDS011;6486;51.034;5.262;2022-08-01T06:03:24;4.70;;;3.20;;
12838;SDS011;6486;51.034;5.262;2022-08-01T06:05:51;7.17;;;2.93;;
12838;SDS011;6486;51.034;5.262;2022-08-01T06:08:16;5.93;;;3.53;;
12838;SDS011;6486;51.034;5.262;2022-08-01T06:10:42;8.10;;;3.00;;
12838;SDS011;6486;51.034;5.262;2022-08-01T06:13:08;6.13;;;3.10;;
12838;SDS011;6486;51.034;5.262;2022-08-01T06:15:34;3.77;;;1.53;;
12838;SDS011;6486;51.034;5.262;2022-08-01T06:17:59;2.50;;;1.73;;
12838;SDS011;6486;51.034;5.262;2022-08-01T06:20:25;1.93;;;1.73;;
12838;SDS011;6486;51.034;5.262;2022-08-01T06:22:51;1.50;;;1.40;;
12838;SDS011;6486;51.034;5.262;2022-08-01T06:25:17;3.37;;;1.50;;
12838;SDS011;6486;51.034;5.262;2022-08-01T06:27:44;1.40;;;1.23;;
12838;SDS011;6486;51.034;5.262;2022-08-01T06:30:10;1.87;;;1.60;;
12838;SDS011;6486;51.034;5.262;2022-08-01T06:32:36;1.90;;;1.60;;
12838;SDS011;6486;51.034;5.262;2022-08-01T06:35:02;2.67;;;1.63;;
12838;SDS011;6486;51.034;5.262;2022-08-01T06:37:29;4.17;;;1.60;;
12838;SDS011;6486;51.034;5.262;2022-08-01T06:39:56;3.73;;;1.87;;
12838;SDS011;6486;51.034;5.262;2022-08-01T06:42:32;4.47;;;2.30;;
12838;SDS011;6486;51.034;5.262;2022-08-01T06:47:30;1.70;;;1.43;;
12838;SDS011;6486;51.034;5.262;2022-08-01T06:49:56;2.50;;;1.80;;
12838;SDS011;6486;51.034;5.262;2022-08-01T06:52:21;1.63;;;1.10;;
12838;SDS011;6486;51.034;5.262;2022-08-01T06:54:47;2.53;;;1.30;;
12838;SDS011;6486;51.034;5.262;2022-08-01T06:57:13;4.43;;;2.07;;
12838;SDS011;6486;51.034;5.262;2022-08-01T06:59:39;2.67;;;1.20;;
12838;SDS011;6486;51.034;5.262;2022-08-01T07:02:04;2.90;;;1.27;;
12838;SDS011;6486;51.034;5.262;2022-08-01T07:04:31;5.13;;;1.23;;
12838;SDS011;6486;51.034;5.262;2022-08-01T07:06:57;2.90;;;1.40;;
12838;SDS011;6486;51.034;5.262;2022-08-01T07:09:23;2.60;;;1.53;;
12838;SDS011;6486;51.034;5.262;2022-08-01T07:11:49;3.27;;;1.30;;
12838;SDS011;6486;51.034;5.262;2022-08-01T07:14:17;1.70;;;1.47;;
12838;SDS011;6486;51.034;5.262;2022-08-01T07:16:43;1.63;;;1.30;;
12838;SDS011;6486;51.034;5.262;2022-08-01T07:19:09;2.63;;;1.30;;
12838;SDS011;6486;51.034;5.262;2022-08-01T07:21:35;1.27;;;1.17;;
12838;SDS011;6486;51.034;5.262;2022-08-01T07:24:01;2.20;;;1.53;;
12838;SDS011;6486;51.034;5.262;2022-08-01T07:26:26;1.50;;;1.37;;
12838;SDS011;6486;51.034;5.262;2022-08-01T07:28:52;0.87;;;0.87;;
12838;SDS011;6486;51.034;5.262;2022-08-01T07:31:18;1.60;;;1.37;;
12838;SDS011;6486;51.034;5.262;2022-08-01T07:33:44;1.23;;;1.10;;
12838;SDS011;6486;51.034;5.262;2022-08-01T07:36:09;2.37;;;1.97;;
12838;SDS011;6486;51.034;5.262;2022-08-01T07:38:35;1.57;;;1.47;;
12838;SDS011;6486;51.034;5.262;2022-08-01T07:41:01;1.73;;;1.27;;
12838;SDS011;6486;51.034;5.262;2022-08-01T07:43:27;1.80;;;1.23;;
12838;SDS011;6486;51.034;5.262;2022-08-01T07:45:53;5.90;;;1.97;;
12838;SDS011;6486;51.034;5.262;2022-08-01T07:48:19;3.03;;;1.70;;
12838;SDS011;6486;51.034;5.262;2022-08-01T07:50:48;2.23;;;1.43;;
12838;SDS011;6486;51.034;5.262;2022-08-01T07:53:17;1.77;;;1.63;;
12838;SDS011;6486;51.034;5.262;2022-08-01T07:55:43;1.83;;;1.30;;
12838;SDS011;6486;51.034;5.262;2022-08-01T07:58:08;2.13;;;1.60;;
12838;SDS011;6486;51.034;5.262;2022-08-01T08:00:34;2.23;;;1.53;;
12838;SDS011;6486;51.034;5.262;2022-08-01T08:03:00;2.20;;;1.57;;
12838;SDS011;6486;51.034;5.262;2022-08-01T08:05:26;4.10;;;1.57;;
12838;SDS011;6486;51.034;5.262;2022-08-01T08:07:52;2.70;;;2.07;;
12838;SDS011;6486;51.034;5.262;2022-08-01T08:10:18;1.60;;;1.47;;
12838;SDS011;6486;51.034;5.262;2022-08-01T08:12:44;1.67;;;1.57;;
12838;SDS011;6486;51.034;5.262;2022-08-01T08:15:11;1.60;;;1.50;;
12838;SDS011;6486;51.034;5.262;2022-08-01T08:17:37;1.73;;;1.63;;
12838;SDS011;6486;51.034;5.262;2022-08-01T08:20:04;2.07;;;1.80;;
12838;SDS011;6486;51.034;5.262;2022-08-01T08:22:31;1.87;;;1.73;;
12838;SDS011;6486;51.034;5.262;2022-08-01T08:24:57;2.50;;;1.40;;
12838;SDS011;6486;51.034;5.262;2022-08-01T08:27:23;2.37;;;1.97;;
12838;SDS011;6486;51.034;5.262;2022-08-01T08:29:48;2.60;;;2.27;;
12838;SDS011;6486;51.034;5.262;2022-08-01T08:32:14;1.87;;;1.73;;
12838;SDS011;6486;51.034;5.262;2022-08-01T08:34:40;3.03;;;2.27;;
12838;SDS011;6486;51.034;5.262;2022-08-01T08:37:05;2.57;;;2.03;;
12838;SDS011;6486;51.034;5.262;2022-08-01T08:39:32;2.63;;;2.43;;
12838;SDS011;6486;51.034;5.262;2022-08-01T08:42:00;2.83;;;2.20;;
12838;SDS011;6486;51.034;5.262;2022-08-01T08:44:30;2.07;;;1.87;;
12838;SDS011;6486;51.034;5.262;2022-08-01T08:46:56;1.97;;;1.67;;
12838;SDS011;6486;51.034;5.262;2022-08-01T08:49:26;2.43;;;2.20;;
12838;SDS011;6486;51.034;5.262;2022-08-01T08:51:53;2.00;;;1.80;;
12838;SDS011;6486;51.034;5.262;2022-08-01T08:54:25;4.47;;;1.90;;
12838;SDS011;6486;51.034;5.262;2022-08-01T08:56:53;2.47;;;2.00;;
12838;SDS011;6486;51.034;5.262;2022-08-01T08:59:19;1.67;;;1.57;;
12838;SDS011;6486;51.034;5.262;2022-08-01T09:01:45;4.03;;;2.20;;
12838;SDS011;6486;51.034;5.262;2022-08-01T09:04:11;1.47;;;1.37;;
12838;SDS011;6486;51.034;5.262;2022-08-01T09:06:38;1.87;;;1.77;;
12838;SDS011;6486;51.034;5.262;2022-08-01T09:09:04;2.30;;;2.07;;
12838;SDS011;6486;51.034;5.262;2022-08-01T09:11:31;1.70;;;1.60;;
12838;SDS011;6486;51.034;5.262;2022-08-01T09:14:11;3.47;;;1.87;;
12838;SDS011;6486;51.034;5.262;2022-08-01T09:16:44;2.43;;;2.23;;
12838;SDS011;6486;51.034;5.262;2022-08-01T09:22:06;2.43;;;2.03;;
12838;SDS011;6486;51.034;5.262;2022-08-01T09:24:32;1.60;;;1.50;;
12838;SDS011;6486;51.034;5.262;2022-08-01T09:26:59;1.60;;;1.47;;
12838;SDS011;6486;51.034;5.262;2022-08-01T09:29:27;1.97;;;1.77;;
12838;SDS011;6486;51.034;5.262;2022-08-01T09:31:55;2.00;;;1.20;;
12838;SDS011;6486;51.034;5.262;2022-08-01T09:34:28;1.90;;;1.70;;
12838;SDS011;6486;51.034;5.262;2022-08-01T09:36:56;2.27;;;1.57;;
12838;SDS011;6486;51.034;5.262;2022-08-01T09:41:54;1.83;;;1.50;;
12838;SDS011;6486;51.034;5.262;2022-08-01T09:44:42;2.13;;;1.50;;
12838;SDS011;6486;51.034;5.262;2022-08-01T09:47:08;1.13;;;1.03;;
12838;SDS011;6486;51.034;5.262;2022-08-01T09:49:35;2.10;;;1.60;;
12838;SDS011;6486;51.034;5.262;2022-08-01T09:57:23;1.47;;;1.37;;
12838;SDS011;6486;51.034;5.262;2022-08-01T09:59:50;1.63;;;1.53;;
12838;SDS011;6486;51.034;5.262;2022-08-01T10:04:56;2.67;;;1.73;;
12838;SDS011;6486;51.034;5.262;2022-08-01T10:07:23;1.93;;;1.40;;
12838;SDS011;6486;51.034;5.262;2022-08-01T10:09:49;1.53;;;1.43;;
12838;SDS011;6486;51.034;5.262;2022-08-01T10:12:18;1.60;;;1.50;;
12838;SDS011;6486;51.034;5.262;2022-08-01T10:14:46;1.50;;;1.40;;
12838;SDS011;6486;51.034;5.262;2022-08-01T10:17:15;8.57;;;1.40;;
12838;SDS011;6486;51.034;5.262;2022-08-01T10:19:43;1.13;;;0.93;;
12838;SDS011;6486;51.034;5.262;2022-08-01T10:22:10;1.47;;;1.37;;
12838;SDS011;6486;51.034;5.262;2022-08-01T10:24:41;3.97;;;1.03;;
12838;SDS011;6486;51.034;5.262;2022-08-01T10:27:09;1.07;;;0.97;;
12838;SDS011;6486;51.034;5.262;2022-08-01T10:29:37;2.00;;;1.10;;
12838;SDS011;6486;51.034;5.262;2022-08-01T10:32:07;1.87;;;0.93;;
12838;SDS011;6486;51.034;5.262;2022-08-01T10:34:35;0.97;;;0.97;;
12838;SDS011;6486;51.034;5.262;2022-08-01T10:37:03;1.10;;;1.00;;
12838;SDS011;6486;51.034;5.262;2022-08-01T10:39:30;2.17;;;1.60;;
12838;SDS011;6486;51.034;5.262;2022-08-01T10:41:56;1.83;;;1.37;;
12838;SDS011;6486;51.034;5.262;2022-08-01T10:44:24;0.83;;;0.83;;
12838;SDS011;6486;51.034;5.262;2022-08-01T10:46:52;1.53;;;1.00;;
12838;SDS011;6486;51.034;5.262;2022-08-01T10:49:25;1.37;;;1.27;;
12838;SDS011;6486;51.034;5.262;2022-08-01T10:51:53;1.90;;;1.23;;
12838;SDS011;6486;51.034;5.262;2022-08-01T10:54:20;4.53;;;1.27;;
12838;SDS011;6486;51.034;5.262;2022-08-01T10:56:50;1.27;;;1.13;;
12838;SDS011;6486;51.034;5.262;2022-08-01T10:59:24;1.07;;;0.90;;
12838;SDS011;6486;51.034;5.262;2022-08-01T11:02:01;1.13;;;1.13;;
12838;SDS011;6486;51.034;5.262;2022-08-01T11:04:33;1.30;;;1.20;;
12838;SDS011;6486;51.034;5.262;2022-08-01T11:07:13;1.50;;;1.40;;
12838;SDS011;6486;51.034;5.262;2022-08-01T11:09:47;1.13;;;1.02;;
12838;SDS011;6486;51.034;5.262;2022-08-01T11:12:23;1.08;;;1.05;;
12838;SDS011;6486;51.034;5.262;2022-08-01T11:17:34;0.80;;;0.80;;
12838;SDS011;6486;51.034;5.262;2022-08-01T11:28:20;0.70;;;0.70;;
12838;SDS011;6486;51.034;5.262;2022-08-01T11:33:18;1.10;;;1.10;;
12838;SDS011;6486;51.034;5.262;2022-08-01T11:41:37;0.97;;;0.97;;
12838;SDS011;6486;51.034;5.262;2022-08-01T11:44:04;1.63;;;1.00;;
12838;SDS011;6486;51.034;5.262;2022-08-01T11:52:08;0.83;;;0.83;;
12838;SDS011;6486;51.034;5.262;2022-08-01T11:54:43;1.03;;;1.03;;
12838;SDS011;6486;51.034;5.262;2022-08-01T11:57:30;0.73;;;0.73;;
12838;SDS011;6486;51.034;5.262;2022-08-01T12:00:10;0.70;;;0.70;;
12838;SDS011;6486;51.034;5.262;2022-08-01T12:02:37;2.73;;;1.30;;
12838;SDS011;6486;51.034;5.262;2022-08-01T12:05:05;1.83;;;0.93;;
12838;SDS011;6486;51.034;5.262;2022-08-01T12:07:39;3.03;;;0.90;;
12838;SDS011;6486;51.034;5.262;2022-08-01T12:10:12;0.90;;;0.87;;
12838;SDS011;6486;51.034;5.262;2022-08-01T12:12:44;0.60;;;0.60;;
12838;SDS011;6486;51.034;5.262;2022-08-01T12:15:10;1.50;;;0.90;;
12838;SDS011;6486;51.034;5.262;2022-08-01T12:17:37;0.63;;;0.63;;
12838;SDS011;6486;51.034;5.262;2022-08-01T12:20:05;0.70;;;0.70;;
12838;SDS011;6486;51.034;5.262;2022-08-01T12:22:32;0.70;;;0.70;;
12838;SDS011;6486;51.034;5.262;2022-08-01T12:25:05;0.47;;;0.47;;
12838;SDS011;6486;51.034;5.262;2022-08-01T12:27:32;1.13;;;1.03;;
12838;SDS011;6486;51.034;5.262;2022-08-01T12:29:58;1.13;;;0.70;;
12838;SDS011;6486;51.034;5.262;2022-08-01T12:32:28;1.37;;;0.80;;
12838;SDS011;6486;51.034;5.262;2022-08-01T12:34:56;0.80;;;0.80;;
12838;SDS011;6486;51.034;5.262;2022-08-01T12:37:27;2.53;;;0.70;;
12838;SDS011;6486;51.034;5.262;2022-08-01T12:39:53;1.20;;;0.90;;
12838;SDS011;6486;51.034;5.262;2022-08-01T12:42:19;0.67;;;0.67;;
12838;SDS011;6486;51.034;5.262;2022-08-01T12:44:47;0.80;;;0.80;;
12838;SDS011;6486;51.034;5.262;2022-08-01T12:47:16;0.73;;;0.73;;
12838;SDS011;6486;51.034;5.262;2022-08-01T12:49:43;0.80;;;0.80;;
12838;SDS011;6486;51.034;5.262;2022-08-01T12:52:09;0.63;;;0.63;;
12838;SDS011;6486;51.034;5.262;2022-08-01T12:57:35;1.50;;;1.03;;
12838;SDS011;6486;51.034;5.262;2022-08-01T13:00:09;0.80;;;0.80;;
12838;SDS011;6486;51.034;5.262;2022-08-01T13:02:36;0.90;;;0.90;;
12838;SDS011;6486;51.034;5.262;2022-08-01T13:05:03;0.70;;;0.70;;
12838;SDS011;6486;51.034;5.262;2022-08-01T13:10:06;1.00;;;1.00;;
12838;SDS011;6486;51.034;5.262;2022-08-01T13:12:33;3.20;;;0.90;;
12838;SDS011;6486;51.034;5.262;2022-08-01T13:14:59;1.50;;;1.10;;
12838;SDS011;6486;51.034;5.262;2022-08-01T13:17:38;1.33;;;1.10;;
12838;SDS011;6486;51.034;5.262;2022-08-01T13:20:05;1.13;;;0.90;;
12838;SDS011;6486;51.034;5.262;2022-08-01T13:22:34;0.80;;;0.80;;
12838;SDS011;6486;51.034;5.262;2022-08-01T13:25:10;1.10;;;1.10;;
12838;SDS011;6486;51.034;5.262;2022-08-01T13:27:39;1.10;;;0.90;;
12838;SDS011;6486;51.034;5.262;2022-08-01T13:32:41;2.77;;;1.10;;
12838;SDS011;6486;51.034;5.262;2022-08-01T13:35:10;0.80;;;0.80;;
12838;SDS011;6486;51.034;5.262;2022-08-01T13:37:41;4.17;;;0.80;;
12838;SDS011;6486;51.034;5.262;2022-08-01T13:40:08;3.53;;;0.90;;
12838;SDS011;6486;51.034;5.262;2022-08-01T13:42:35;1.03;;;0.70;;
12838;SDS011;6486;51.034;5.262;2022-08-01T13:45:02;0.87;;;0.83;;
12838;SDS011;6486;51.034;5.262;2022-08-01T13:47:28;1.13;;;0.87;;
12838;SDS011;6486;51.034;5.262;2022-08-01T13:49:55;1.00;;;0.90;;
12838;SDS011;6486;51.034;5.262;2022-08-01T13:52:22;0.70;;;0.70;;
12838;SDS011;6486;51.034;5.262;2022-08-01T13:54:47;0.70;;;0.70;;
12838;SDS011;6486;51.034;5.262;2022-08-01T13:57:13;0.73;;;0.73;;
12838;SDS011;6486;51.034;5.262;2022-08-01T13:59:39;1.70;;;1.00;;
12838;SDS011;6486;51.034;5.262;2022-08-01T14:02:05;0.87;;;0.87;;
12838;SDS011;6486;51.034;5.262;2022-08-01T14:04:30;0.70;;;0.70;;
12838;SDS011;6486;51.034;5.262;2022-08-01T14:06:56;1.93;;;1.03;;
12838;SDS011;6486;51.034;5.262;2022-08-01T14:09:21;4.17;;;1.23;;
12838;SDS011;6486;51.034;5.262;2022-08-01T14:11:48;1.33;;;1.00;;
12838;SDS011;6486;51.034;5.262;2022-08-01T14:14:13;1.27;;;1.17;;
12838;SDS011;6486;51.034;5.262;2022-08-01T14:16:39;0.83;;;0.70;;
12838;SDS011;6486;51.034;5.262;2022-08-01T14:19:05;1.10;;;1.00;;
12838;SDS011;6486;51.034;5.262;2022-08-01T14:21:30;0.50;;;0.50;;
12838;SDS011;6486;51.034;5.262;2022-08-01T14:23:56;0.77;;;0.77;;
12838;SDS011;6486;51.034;5.262;2022-08-01T14:26:21;2.50;;;1.03;;
12838;SDS011;6486;51.034;5.262;2022-08-01T14:28:47;0.60;;;0.60;;
12838;SDS011;6486;51.034;5.262;2022-08-01T14:31:13;1.00;;;0.80;;
12838;SDS011;6486;51.034;5.262;2022-08-01T14:33:39;2.40;;;1.13;;
12838;SDS011;6486;51.034;5.262;2022-08-01T14:36:04;1.33;;;0.63;;
12838;SDS011;6486;51.034;5.262;2022-08-01T14:38:30;0.90;;;0.80;;
12838;SDS011;6486;51.034;5.262;2022-08-01T14:40:56;2.10;;;1.10;;
12838;SDS011;6486;51.034;5.262;2022-08-01T14:43:22;1.90;;;0.90;;
12838;SDS011;6486;51.034;5.262;2022-08-01T14:45:48;1.17;;;1.07;;
12838;SDS011;6486;51.034;5.262;2022-08-01T14:48:18;0.90;;;0.80;;
12838;SDS011;6486;51.034;5.262;2022-08-01T14:50:44;0.77;;;0.77;;
12838;SDS011;6486;51.034;5.262;2022-08-01T14:53:09;0.90;;;0.90;;
12838;SDS011;6486;51.034;5.262;2022-08-01T14:55:35;1.13;;;0.80;;
12838;SDS011;6486;51.034;5.262;2022-08-01T14:58:01;1.10;;;0.90;;
12838;SDS011;6486;51.034;5.262;2022-08-01T15:00:27;0.70;;;0.70;;
12838;SDS011;6486;51.034;5.262;2022-08-01T15:02:52;0.80;;;0.80;;
12838;SDS011;6486;51.034;5.262;2022-08-01T15:05:18;1.42;;;1.05;;
12838;SDS011;6486;51.034;5.262;2022-08-01T15:07:44;1.85;;;0.88;;
12838;SDS011;6486;51.034;5.262;2022-08-01T15:10:09;0.82;;;0.68;;
12838;SDS011;6486;51.034;5.262;2022-08-01T15:12:35;1.67;;;0.82;;
12838;SDS011;6486;51.034;5.262;2022-08-01T15:15:01;3.63;;;1.05;;
12838;SDS011;6486;51.034;5.262;2022-08-01T15:17:27;0.80;;;0.80;;
12838;SDS011;6486;51.034;5.262;2022-08-01T15:19:56;2.70;;;0.98;;
12838;SDS011;6486;51.034;5.262;2022-08-01T15:22:23;0.90;;;0.80;;
12838;SDS011;6486;51.034;5.262;2022-08-01T15:24:50;1.45;;;1.10;;
12838;SDS011;6486;51.034;5.262;2022-08-01T15:27:17;1.42;;;0.70;;
12838;SDS011;6486;51.034;5.262;2022-08-01T15:29:43;4.07;;;1.10;;
12838;SDS011;6486;51.034;5.262;2022-08-01T15:32:10;1.13;;;1.00;;
12838;SDS011;6486;51.034;5.262;2022-08-01T15:34:36;0.60;;;0.60;;
12838;SDS011;6486;51.034;5.262;2022-08-01T15:37:03;0.80;;;0.75;;
12838;SDS011;6486;51.034;5.262;2022-08-01T15:39:31;0.90;;;0.90;;
12838;SDS011;6486;51.034;5.262;2022-08-01T15:42:02;1.50;;;1.08;;
12838;SDS011;6486;51.034;5.262;2022-08-01T15:44:30;2.25;;;0.93;;
12838;SDS011;6486;51.034;5.262;2022-08-01T15:46:56;5.43;;;1.00;;
12838;SDS011;6486;51.034;5.262;2022-08-01T15:49:21;1.77;;;0.88;;
12838;SDS011;6486;51.034;5.262;2022-08-01T15:51:49;0.85;;;0.80;;
12838;SDS011;6486;51.034;5.262;2022-08-01T15:54:15;1.95;;;1.05;;
12838;SDS011;6486;51.034;5.262;2022-08-01T15:56:41;2.13;;;0.63;;
12838;SDS011;6486;51.034;5.262;2022-08-01T15:59:07;2.85;;;0.77;;
12838;SDS011;6486;51.034;5.262;2022-08-01T16:01:33;1.30;;;0.70;;
12838;SDS011;6486;51.034;5.262;2022-08-01T16:03:59;0.70;;;0.70;;